sensor_id;sensor_type;location;lat;lon;timestamp;temperature;humidity
34833;DHT22;55941;50.800;4.342;2022-10-16T00:00:01;15.20;99.90
34833;DHT22;55941;50.800;4.342;2022-10-16T00:02:26;15.20;99.90
34833;DHT22;55941;50.800;4.342;2022-10-16T00:04:52;15.30;99.90
34833;DHT22;55941;50.800;4.342;2022-10-16T00:07:17;15.20;99.90
34833;DHT22;55941;50.800;4.342;2022-10-16T00:09:43;15.10;99.90
34833;DHT22;55941;50.800;4.342;2022-10-16T00:12:09;15.20;99.90
34833;DHT22;55941;50.800;4.342;2022-10-16T00:14:34;15.10;99.90
34833;DHT22;55941;50.800;4.342;2022-10-16T00:17:01;15.00;99.90
34833;DHT22;55941;50.800;4.342;2022-10-16T00:19:26;15.10;99.90
34833;DHT22;55941;50.800;4.342;2022-10-16T00:21:52;15.10;99.90
34833;DHT22;55941;50.800;4.342;2022-10-16T00:24:17;15.00;99.90
34833;DHT22;55941;50.800;4.342;2022-10-16T00:26:43;15.00;99.90
34833;DHT22;55941;50.800;4.342;2022-10-16T00:29:08;14.90;99.90
34833;DHT22;55941;50.800;4.342;2022-10-16T00:31:34;14.90;99.90
34833;DHT22;55941;50.800;4.342;2022-10-16T00:34:00;15.10;99.90
34833;DHT22;55941;50.800;4.342;2022-10-16T00:36:26;15.20;99.90
34833;DHT22;55941;50.800;4.342;2022-10-16T00:38:55;15.10;99.90
34833;DHT22;55941;50.800;4.342;2022-10-16T00:41:23;15.10;99.90
34833;DHT22;55941;50.800;4.342;2022-10-16T00:43:50;14.90;99.90
34833;DHT22;55941;50.800;4.342;2022-10-16T00:46:19;14.90;99.90
34833;DHT22;55941;50.800;4.342;2022-10-16T00:48:50;14.90;99.90
34833;DHT22;55941;50.800;4.342;2022-10-16T00:51:21;14.90;99.90
34833;DHT22;55941;50.800;4.342;2022-10-16T00:53:49;15.00;99.90
34833;DHT22;55941;50.800;4.342;2022-10-16T00:56:15;15.00;99.90
34833;DHT22;55941;50.800;4.342;2022-10-16T00:58:41;15.10;99.90
34833;DHT22;55941;50.800;4.342;2022-10-16T01:01:06;15.00;99.90
34833;DHT22;55941;50.800;4.342;2022-10-16T01:03:33;14.90;99.90
34833;DHT22;55941;50.800;4.342;2022-10-16T01:06:02;15.10;99.90
34833;DHT22;55941;50.800;4.342;2022-10-16T01:08:43;15.10;99.90
34833;DHT22;55941;50.800;4.342;2022-10-16T01:11:14;15.00;99.90
34833;DHT22;55941;50.800;4.342;2022-10-16T01:13:42;15.00;99.90
34833;DHT22;55941;50.800;4.342;2022-10-16T01:18:43;15.00;99.90
34833;DHT22;55941;50.800;4.342;2022-10-16T01:21:10;15.00;99.90
34833;DHT22;55941;50.800;4.342;2022-10-16T01:23:47;14.90;99.90
34833;DHT22;55941;50.800;4.342;2022-10-16T01:26:20;14.80;99.90
34833;DHT22;55941;50.800;4.342;2022-10-16T01:28:51;14.60;99.90
34833;DHT22;55941;50.800;4.342;2022-10-16T01:31:19;14.70;99.90
34833;DHT22;55941;50.800;4.342;2022-10-16T01:33:47;14.70;99.90
34833;DHT22;55941;50.800;4.342;2022-10-16T01:36:16;14.70;99.90
34833;DHT22;55941;50.800;4.342;2022-10-16T01:38:44;14.70;99.90
34833;DHT22;55941;50.800;4.342;2022-10-16T01:41:14;14.80;99.90
34833;DHT22;55941;50.800;4.342;2022-10-16T01:43:57;14.90;99.90
34833;DHT22;55941;50.800;4.342;2022-10-16T01:46:24;14.90;99.90
34833;DHT22;55941;50.800;4.342;2022-10-16T01:48:51;14.80;99.90
34833;DHT22;55941;50.800;4.342;2022-10-16T01:51:17;14.80;99.90
34833;DHT22;55941;50.800;4.342;2022-10-16T01:53:46;14.70;99.90
34833;DHT22;55941;50.800;4.342;2022-10-16T01:56:12;14.70;99.90
34833;DHT22;55941;50.800;4.342;2022-10-16T01:58:42;14.70;99.90
34833;DHT22;55941;50.800;4.342;2022-10-16T02:01:10;14.60;99.90
34833;DHT22;55941;50.800;4.342;2022-10-16T02:03:38;14.40;99.90
34833;DHT22;55941;50.800;4.342;2022-10-16T02:06:05;14.20;99.90
34833;DHT22;55941;50.800;4.342;2022-10-16T02:08:32;14.30;99.90
34833;DHT22;55941;50.800;4.342;2022-10-16T02:10:58;14.50;99.90
34833;DHT22;55941;50.800;4.342;2022-10-16T02:13:29;14.50;99.90
34833;DHT22;55941;50.800;4.342;2022-10-16T02:15:56;14.40;99.90
34833;DHT22;55941;50.800;4.342;2022-10-16T02:18:22;14.50;99.90
34833;DHT22;55941;50.800;4.342;2022-10-16T02:20:51;14.60;99.90
34833;DHT22;55941;50.800;4.342;2022-10-16T02:23:20;14.70;99.90
34833;DHT22;55941;50.800;4.342;2022-10-16T02:25:48;14.70;99.90
34833;DHT22;55941;50.800;4.342;2022-10-16T02:28:16;14.80;99.90
34833;DHT22;55941;50.800;4.342;2022-10-16T02:30:44;15.00;99.90
34833;DHT22;55941;50.800;4.342;2022-10-16T02:33:11;14.90;99.90
34833;DHT22;55941;50.800;4.342;2022-10-16T02:35:38;14.70;99.90
34833;DHT22;55941;50.800;4.342;2022-10-16T02:38:05;14.50;99.90
34833;DHT22;55941;50.800;4.342;2022-10-16T02:40:31;14.50;99.90
34833;DHT22;55941;50.800;4.342;2022-10-16T02:42:56;14.50;99.90
34833;DHT22;55941;50.800;4.342;2022-10-16T02:45:23;14.60;99.90
34833;DHT22;55941;50.800;4.342;2022-10-16T02:47:49;14.50;99.90
34833;DHT22;55941;50.800;4.342;2022-10-16T02:50:15;14.40;99.90
34833;DHT22;55941;50.800;4.342;2022-10-16T02:52:41;14.40;99.90
34833;DHT22;55941;50.800;4.342;2022-10-16T02:55:06;14.50;99.90
34833;DHT22;55941;50.800;4.342;2022-10-16T02:57:32;14.60;99.90
34833;DHT22;55941;50.800;4.342;2022-10-16T02:59:58;14.60;99.90
34833;DHT22;55941;50.800;4.342;2022-10-16T03:02:23;14.50;99.90
34833;DHT22;55941;50.800;4.342;2022-10-16T03:04:50;14.60;99.90
34833;DHT22;55941;50.800;4.342;2022-10-16T03:07:15;14.60;99.90
34833;DHT22;55941;50.800;4.342;2022-10-16T03:09:41;14.60;99.90
34833;DHT22;55941;50.800;4.342;2022-10-16T03:12:06;14.40;99.90
34833;DHT22;55941;50.800;4.342;2022-10-16T03:14:32;14.50;99.90
34833;DHT22;55941;50.800;4.342;2022-10-16T03:16:57;14.40;99.90
34833;DHT22;55941;50.800;4.342;2022-10-16T03:19:23;14.30;99.90
34833;DHT22;55941;50.800;4.342;2022-10-16T03:21:49;14.50;99.90
34833;DHT22;55941;50.800;4.342;2022-10-16T03:24:14;14.60;99.90
34833;DHT22;55941;50.800;4.342;2022-10-16T03:26:40;14.50;99.90
34833;DHT22;55941;50.800;4.342;2022-10-16T03:29:05;14.50;99.90
34833;DHT22;55941;50.800;4.342;2022-10-16T03:31:31;14.60;99.90
34833;DHT22;55941;50.800;4.342;2022-10-16T03:33:57;14.70;99.90
34833;DHT22;55941;50.800;4.342;2022-10-16T03:36:22;14.70;99.90
34833;DHT22;55941;50.800;4.342;2022-10-16T03:38:48;14.80;99.90
34833;DHT22;55941;50.800;4.342;2022-10-16T03:41:13;14.80;99.90
34833;DHT22;55941;50.800;4.342;2022-10-16T03:43:39;14.80;99.90
34833;DHT22;55941;50.800;4.342;2022-10-16T03:46:04;14.60;99.90
34833;DHT22;55941;50.800;4.342;2022-10-16T03:48:30;14.50;99.90
34833;DHT22;55941;50.800;4.342;2022-10-16T03:50:55;14.50;99.90
34833;DHT22;55941;50.800;4.342;2022-10-16T03:53:21;14.50;99.90
34833;DHT22;55941;50.800;4.342;2022-10-16T03:55:47;14.60;99.90
34833;DHT22;55941;50.800;4.342;2022-10-16T03:58:12;14.60;99.90
34833;DHT22;55941;50.800;4.342;2022-10-16T04:00:41;14.60;99.90
34833;DHT22;55941;50.800;4.342;2022-10-16T04:03:07;14.70;99.90
34833;DHT22;55941;50.800;4.342;2022-10-16T04:05:32;14.70;99.90
34833;DHT22;55941;50.800;4.342;2022-10-16T04:07:58;14.80;99.90
34833;DHT22;55941;50.800;4.342;2022-10-16T04:10:23;14.80;99.90
34833;DHT22;55941;50.800;4.342;2022-10-16T04:12:49;14.60;99.90
34833;DHT22;55941;50.800;4.342;2022-10-16T04:15:15;14.60;99.90
34833;DHT22;55941;50.800;4.342;2022-10-16T04:17:41;14.50;99.90
34833;DHT22;55941;50.800;4.342;2022-10-16T04:20:07;14.60;99.90
34833;DHT22;55941;50.800;4.342;2022-10-16T04:22:32;14.70;99.90
34833;DHT22;55941;50.800;4.342;2022-10-16T04:24:58;14.80;99.90
34833;DHT22;55941;50.800;4.342;2022-10-16T04:27:23;14.80;99.90
34833;DHT22;55941;50.800;4.342;2022-10-16T04:29:49;14.70;99.90
34833;DHT22;55941;50.800;4.342;2022-10-16T04:32:14;14.60;99.90
34833;DHT22;55941;50.800;4.342;2022-10-16T04:34:40;14.60;99.90
34833;DHT22;55941;50.800;4.342;2022-10-16T04:37:06;14.60;99.90
34833;DHT22;55941;50.800;4.342;2022-10-16T04:39:32;14.60;99.90
34833;DHT22;55941;50.800;4.342;2022-10-16T04:41:58;14.70;99.90
34833;DHT22;55941;50.800;4.342;2022-10-16T04:44:24;14.70;99.90
34833;DHT22;55941;50.800;4.342;2022-10-16T04:46:50;14.80;99.90
34833;DHT22;55941;50.800;4.342;2022-10-16T04:49:15;14.80;99.90
34833;DHT22;55941;50.800;4.342;2022-10-16T04:51:42;14.80;99.90
34833;DHT22;55941;50.800;4.342;2022-10-16T04:54:08;14.50;99.90
34833;DHT22;55941;50.800;4.342;2022-10-16T04:56:33;14.50;99.90
34833;DHT22;55941;50.800;4.342;2022-10-16T04:59:05;14.70;99.90
34833;DHT22;55941;50.800;4.342;2022-10-16T05:01:31;14.60;99.90
34833;DHT22;55941;50.800;4.342;2022-10-16T05:03:56;14.60;99.90
34833;DHT22;55941;50.800;4.342;2022-10-16T05:06:22;14.80;99.90
34833;DHT22;55941;50.800;4.342;2022-10-16T05:08:47;14.80;99.90
34833;DHT22;55941;50.800;4.342;2022-10-16T05:11:13;14.70;99.90
34833;DHT22;55941;50.800;4.342;2022-10-16T05:13:38;14.60;99.90
34833;DHT22;55941;50.800;4.342;2022-10-16T05:16:04;14.70;99.90
34833;DHT22;55941;50.800;4.342;2022-10-16T05:18:30;14.80;99.90
34833;DHT22;55941;50.800;4.342;2022-10-16T05:20:55;14.60;99.90
34833;DHT22;55941;50.800;4.342;2022-10-16T05:23:21;14.40;99.90
34833;DHT22;55941;50.800;4.342;2022-10-16T05:25:56;14.40;99.90
34833;DHT22;55941;50.800;4.342;2022-10-16T05:28:24;14.30;99.90
34833;DHT22;55941;50.800;4.342;2022-10-16T05:30:50;14.40;99.90
34833;DHT22;55941;50.800;4.342;2022-10-16T05:33:16;14.40;99.90
34833;DHT22;55941;50.800;4.342;2022-10-16T05:35:42;14.40;99.90
34833;DHT22;55941;50.800;4.342;2022-10-16T05:38:07;14.30;99.90
34833;DHT22;55941;50.800;4.342;2022-10-16T05:40:33;14.50;99.90
34833;DHT22;55941;50.800;4.342;2022-10-16T05:42:58;14.40;99.90
34833;DHT22;55941;50.800;4.342;2022-10-16T05:45:25;14.40;99.90
34833;DHT22;55941;50.800;4.342;2022-10-16T05:47:50;14.40;99.90
34833;DHT22;55941;50.800;4.342;2022-10-16T05:50:16;14.50;99.90
34833;DHT22;55941;50.800;4.342;2022-10-16T05:52:42;14.60;99.90
34833;DHT22;55941;50.800;4.342;2022-10-16T05:55:08;14.70;99.90
34833;DHT22;55941;50.800;4.342;2022-10-16T05:57:34;14.50;99.90
34833;DHT22;55941;50.800;4.342;2022-10-16T06:00:00;14.50;99.90
34833;DHT22;55941;50.800;4.342;2022-10-16T06:02:25;14.50;99.90
34833;DHT22;55941;50.800;4.342;2022-10-16T06:04:51;14.30;99.90
34833;DHT22;55941;50.800;4.342;2022-10-16T06:07:20;14.30;99.90
34833;DHT22;55941;50.800;4.342;2022-10-16T06:09:49;14.20;99.90
34833;DHT22;55941;50.800;4.342;2022-10-16T06:12:15;14.30;99.90
34833;DHT22;55941;50.800;4.342;2022-10-16T06:14:40;14.40;99.90
34833;DHT22;55941;50.800;4.342;2022-10-16T06:17:06;14.40;99.90
34833;DHT22;55941;50.800;4.342;2022-10-16T06:19:32;14.60;99.90
34833;DHT22;55941;50.800;4.342;2022-10-16T06:21:57;14.60;99.90
34833;DHT22;55941;50.800;4.342;2022-10-16T06:24:24;14.60;99.90
34833;DHT22;55941;50.800;4.342;2022-10-16T06:26:50;14.60;99.90
34833;DHT22;55941;50.800;4.342;2022-10-16T06:29:16;14.50;99.90
34833;DHT22;55941;50.800;4.342;2022-10-16T06:31:41;14.50;99.90
34833;DHT22;55941;50.800;4.342;2022-10-16T06:34:10;14.50;99.90
34833;DHT22;55941;50.800;4.342;2022-10-16T06:36:37;14.50;99.90
34833;DHT22;55941;50.800;4.342;2022-10-16T06:39:04;14.70;99.90
34833;DHT22;55941;50.800;4.342;2022-10-16T06:41:30;14.70;99.90
34833;DHT22;55941;50.800;4.342;2022-10-16T06:43:56;14.90;99.90
34833;DHT22;55941;50.800;4.342;2022-10-16T06:46:22;14.90;99.90
34833;DHT22;55941;50.800;4.342;2022-10-16T06:48:48;15.00;99.90
34833;DHT22;55941;50.800;4.342;2022-10-16T06:51:14;15.00;99.90
34833;DHT22;55941;50.800;4.342;2022-10-16T06:53:41;15.00;99.90
34833;DHT22;55941;50.800;4.342;2022-10-16T06:56:14;15.00;99.90
34833;DHT22;55941;50.800;4.342;2022-10-16T06:58:40;15.10;99.90
34833;DHT22;55941;50.800;4.342;2022-10-16T07:01:06;15.10;99.90
34833;DHT22;55941;50.800;4.342;2022-10-16T07:03:32;15.10;99.90
34833;DHT22;55941;50.800;4.342;2022-10-16T07:06:02;15.10;99.90
34833;DHT22;55941;50.800;4.342;2022-10-16T07:08:30;15.20;99.90
34833;DHT22;55941;50.800;4.342;2022-10-16T07:11:00;15.10;99.90
34833;DHT22;55941;50.800;4.342;2022-10-16T07:13:26;15.10;99.90
34833;DHT22;55941;50.800;4.342;2022-10-16T07:15:52;15.00;99.90
34833;DHT22;55941;50.800;4.342;2022-10-16T07:18:17;15.00;99.90
34833;DHT22;55941;50.800;4.342;2022-10-16T07:20:43;15.00;99.90
34833;DHT22;55941;50.800;4.342;2022-10-16T07:23:09;15.00;99.90
34833;DHT22;55941;50.800;4.342;2022-10-16T07:25:34;15.00;99.90
34833;DHT22;55941;50.800;4.342;2022-10-16T07:28:00;15.00;99.90
34833;DHT22;55941;50.800;4.342;2022-10-16T07:30:25;15.00;99.90
34833;DHT22;55941;50.800;4.342;2022-10-16T07:32:51;15.00;99.90
34833;DHT22;55941;50.800;4.342;2022-10-16T07:35:16;15.00;99.90
34833;DHT22;55941;50.800;4.342;2022-10-16T07:37:45;15.10;99.90
34833;DHT22;55941;50.800;4.342;2022-10-16T07:40:11;15.10;99.90
34833;DHT22;55941;50.800;4.342;2022-10-16T07:42:37;15.10;99.90
34833;DHT22;55941;50.800;4.342;2022-10-16T07:45:03;15.00;99.90
34833;DHT22;55941;50.800;4.342;2022-10-16T07:47:28;15.00;99.90
34833;DHT22;55941;50.800;4.342;2022-10-16T07:49:54;15.00;99.90
34833;DHT22;55941;50.800;4.342;2022-10-16T07:52:19;15.00;99.90
34833;DHT22;55941;50.800;4.342;2022-10-16T07:54:45;15.00;99.90
34833;DHT22;55941;50.800;4.342;2022-10-16T07:57:10;15.10;99.90
34833;DHT22;55941;50.800;4.342;2022-10-16T07:59:36;15.10;99.90
34833;DHT22;55941;50.800;4.342;2022-10-16T08:02:03;15.20;99.90
34833;DHT22;55941;50.800;4.342;2022-10-16T08:04:28;15.20;99.90
34833;DHT22;55941;50.800;4.342;2022-10-16T08:06:54;15.20;99.90
34833;DHT22;55941;50.800;4.342;2022-10-16T08:09:19;15.30;99.90
34833;DHT22;55941;50.800;4.342;2022-10-16T08:11:46;15.50;99.90
34833;DHT22;55941;50.800;4.342;2022-10-16T08:14:12;15.40;99.90
34833;DHT22;55941;50.800;4.342;2022-10-16T08:16:37;15.50;99.90
34833;DHT22;55941;50.800;4.342;2022-10-16T08:19:03;15.40;99.90
34833;DHT22;55941;50.800;4.342;2022-10-16T08:21:28;15.60;99.90
34833;DHT22;55941;50.800;4.342;2022-10-16T08:23:54;15.70;99.90
34833;DHT22;55941;50.800;4.342;2022-10-16T08:26:20;15.70;99.90
34833;DHT22;55941;50.800;4.342;2022-10-16T08:28:46;15.70;99.90
34833;DHT22;55941;50.800;4.342;2022-10-16T08:31:15;15.80;99.90
34833;DHT22;55941;50.800;4.342;2022-10-16T08:33:41;15.90;99.90
34833;DHT22;55941;50.800;4.342;2022-10-16T08:36:09;16.10;99.90
34833;DHT22;55941;50.800;4.342;2022-10-16T08:38:34;16.10;99.90
34833;DHT22;55941;50.800;4.342;2022-10-16T08:41:02;16.00;99.90
34833;DHT22;55941;50.800;4.342;2022-10-16T08:43:43;16.00;99.90
34833;DHT22;55941;50.800;4.342;2022-10-16T08:48:56;16.10;99.90
34833;DHT22;55941;50.800;4.342;2022-10-16T08:51:32;16.20;99.90
34833;DHT22;55941;50.800;4.342;2022-10-16T08:54:06;16.20;99.90
34833;DHT22;55941;50.800;4.342;2022-10-16T08:56:31;16.00;99.90
34833;DHT22;55941;50.800;4.342;2022-10-16T08:58:58;16.00;99.90
34833;DHT22;55941;50.800;4.342;2022-10-16T09:01:25;16.10;99.90
34833;DHT22;55941;50.800;4.342;2022-10-16T09:04:00;16.10;99.90
34833;DHT22;55941;50.800;4.342;2022-10-16T09:09:01;16.30;99.90
34833;DHT22;55941;50.800;4.342;2022-10-16T09:11:46;16.50;99.90
34833;DHT22;55941;50.800;4.342;2022-10-16T09:17:14;16.60;99.90
34833;DHT22;55941;50.800;4.342;2022-10-16T09:19:44;16.60;99.90
34833;DHT22;55941;50.800;4.342;2022-10-16T09:22:15;16.50;99.90
34833;DHT22;55941;50.800;4.342;2022-10-16T09:24:41;16.70;99.90
34833;DHT22;55941;50.800;4.342;2022-10-16T09:27:11;16.80;99.90
34833;DHT22;55941;50.800;4.342;2022-10-16T09:29:37;16.80;99.90
34833;DHT22;55941;50.800;4.342;2022-10-16T09:32:17;16.90;99.90
34833;DHT22;55941;50.800;4.342;2022-10-16T09:34:52;17.00;99.90
34833;DHT22;55941;50.800;4.342;2022-10-16T09:37:20;17.20;99.90
34833;DHT22;55941;50.800;4.342;2022-10-16T09:39:50;17.20;99.90
34833;DHT22;55941;50.800;4.342;2022-10-16T09:42:20;17.30;99.90
34833;DHT22;55941;50.800;4.342;2022-10-16T09:44:50;17.30;99.90
34833;DHT22;55941;50.800;4.342;2022-10-16T09:47:17;17.30;99.90
34833;DHT22;55941;50.800;4.342;2022-10-16T09:49:56;17.40;99.90
34833;DHT22;55941;50.800;4.342;2022-10-16T09:52:24;17.50;99.90
34833;DHT22;55941;50.800;4.342;2022-10-16T09:57:15;17.80;99.90
34833;DHT22;55941;50.800;4.342;2022-10-16T09:59:48;17.80;99.90
34833;DHT22;55941;50.800;4.342;2022-10-16T10:02:14;17.80;99.90
34833;DHT22;55941;50.800;4.342;2022-10-16T10:04:41;17.70;99.90
34833;DHT22;55941;50.800;4.342;2022-10-16T10:07:21;17.60;99.90
34833;DHT22;55941;50.800;4.342;2022-10-16T10:09:48;17.60;99.90
34833;DHT22;55941;50.800;4.342;2022-10-16T10:12:19;17.70;99.90
34833;DHT22;55941;50.800;4.342;2022-10-16T10:14:55;17.80;99.90
34833;DHT22;55941;50.800;4.342;2022-10-16T10:17:22;17.80;99.90
34833;DHT22;55941;50.800;4.342;2022-10-16T10:24:43;18.30;99.90
34833;DHT22;55941;50.800;4.342;2022-10-16T10:27:10;18.50;99.90
34833;DHT22;55941;50.800;4.342;2022-10-16T10:35:13;18.20;99.90
34833;DHT22;55941;50.800;4.342;2022-10-16T10:37:58;18.30;99.90
34833;DHT22;55941;50.800;4.342;2022-10-16T10:43:06;18.70;99.90
34833;DHT22;55941;50.800;4.342;2022-10-16T10:49:09;18.80;99.90
34833;DHT22;55941;50.800;4.342;2022-10-16T10:51:07;18.90;99.90
34833;DHT22;55941;50.800;4.342;2022-10-16T10:53:52;18.90;99.90
34833;DHT22;55941;50.800;4.342;2022-10-16T11:02:01;19.10;99.90
34833;DHT22;55941;50.800;4.342;2022-10-16T11:06:59;19.10;99.90
34833;DHT22;55941;50.800;4.342;2022-10-16T11:12:21;19.10;99.90
34833;DHT22;55941;50.800;4.342;2022-10-16T11:14:49;19.40;99.90
34833;DHT22;55941;50.800;4.342;2022-10-16T11:17:18;19.60;99.90
34833;DHT22;55941;50.800;4.342;2022-10-16T11:19:48;19.60;99.90
34833;DHT22;55941;50.800;4.342;2022-10-16T11:25:00;19.80;99.90
34833;DHT22;55941;50.800;4.342;2022-10-16T11:27:38;20.10;99.90
34833;DHT22;55941;50.800;4.342;2022-10-16T11:30:05;20.50;99.90
34833;DHT22;55941;50.800;4.342;2022-10-16T11:32:43;21.20;99.90
34833;DHT22;55941;50.800;4.342;2022-10-16T11:35:21;21.90;99.90
34833;DHT22;55941;50.800;4.342;2022-10-16T11:37:48;22.60;99.90
34833;DHT22;55941;50.800;4.342;2022-10-16T11:40:33;23.10;99.90
34833;DHT22;55941;50.800;4.342;2022-10-16T11:43:17;23.40;99.90
34833;DHT22;55941;50.800;4.342;2022-10-16T11:45:46;23.60;99.90
34833;DHT22;55941;50.800;4.342;2022-10-16T11:50:43;23.10;99.90
34833;DHT22;55941;50.800;4.342;2022-10-16T11:53:15;22.30;99.90
34833;DHT22;55941;50.800;4.342;2022-10-16T11:55:43;22.10;99.90
34833;DHT22;55941;50.800;4.342;2022-10-16T11:58:13;22.00;99.90
34833;DHT22;55941;50.800;4.342;2022-10-16T12:00:53;21.90;99.90
34833;DHT22;55941;50.800;4.342;2022-10-16T12:03:25;21.90;99.90
34833;DHT22;55941;50.800;4.342;2022-10-16T12:08:23;21.90;99.90
34833;DHT22;55941;50.800;4.342;2022-10-16T12:10:49;22.10;99.90
34833;DHT22;55941;50.800;4.342;2022-10-16T12:18:37;22.00;99.90
34833;DHT22;55941;50.800;4.342;2022-10-16T12:21:04;22.10;99.90
34833;DHT22;55941;50.800;4.342;2022-10-16T12:23:31;22.00;99.90
34833;DHT22;55941;50.800;4.342;2022-10-16T12:25:58;22.10;99.90
34833;DHT22;55941;50.800;4.342;2022-10-16T12:28:28;22.20;99.90
34833;DHT22;55941;50.800;4.342;2022-10-16T12:33:20;22.80;99.90
34833;DHT22;55941;50.800;4.342;2022-10-16T12:35:46;23.10;99.90
34833;DHT22;55941;50.800;4.342;2022-10-16T12:38:25;23.20;99.90
34833;DHT22;55941;50.800;4.342;2022-10-16T12:45:59;23.10;99.90
34833;DHT22;55941;50.800;4.342;2022-10-16T12:48:24;22.80;99.90
34833;DHT22;55941;50.800;4.342;2022-10-16T12:50:50;22.40;99.90
34833;DHT22;55941;50.800;4.342;2022-10-16T12:53:23;22.50;99.90
34833;DHT22;55941;50.800;4.342;2022-10-16T13:03:56;21.70;99.90
34833;DHT22;55941;50.800;4.342;2022-10-16T13:09:02;21.80;99.90
34833;DHT22;55941;50.800;4.342;2022-10-16T13:26:49;22.00;99.90
34833;DHT22;55941;50.800;4.342;2022-10-16T13:29:16;22.10;99.90
34833;DHT22;55941;50.800;4.342;2022-10-16T13:31:42;22.10;99.90
34833;DHT22;55941;50.800;4.342;2022-10-16T13:34:15;22.30;99.90
34833;DHT22;55941;50.800;4.342;2022-10-16T13:36:43;22.40;99.90
34833;DHT22;55941;50.800;4.342;2022-10-16T13:41:34;22.30;99.90
34833;DHT22;55941;50.800;4.342;2022-10-16T13:44:00;22.20;99.90
34833;DHT22;55941;50.800;4.342;2022-10-16T13:46:25;22.10;99.90
34833;DHT22;55941;50.800;4.342;2022-10-16T13:48:59;22.00;99.90
34833;DHT22;55941;50.800;4.342;2022-10-16T13:51:25;21.70;99.90
34833;DHT22;55941;50.800;4.342;2022-10-16T13:53:51;21.60;99.90
34833;DHT22;55941;50.800;4.342;2022-10-16T13:56:18;21.50;99.90
34833;DHT22;55941;50.800;4.342;2022-10-16T13:58:45;21.60;99.90
34833;DHT22;55941;50.800;4.342;2022-10-16T14:01:19;21.70;99.90
34833;DHT22;55941;50.800;4.342;2022-10-16T14:03:45;21.70;99.90
34833;DHT22;55941;50.800;4.342;2022-10-16T14:06:15;21.80;99.90
34833;DHT22;55941;50.800;4.342;2022-10-16T14:08:45;21.50;99.90
34833;DHT22;55941;50.800;4.342;2022-10-16T14:11:11;21.30;99.90
34833;DHT22;55941;50.800;4.342;2022-10-16T14:13:38;21.20;99.90
34833;DHT22;55941;50.800;4.342;2022-10-16T14:16:09;21.10;99.90
34833;DHT22;55941;50.800;4.342;2022-10-16T14:18:35;21.10;99.90
34833;DHT22;55941;50.800;4.342;2022-10-16T14:21:06;21.10;99.90
34833;DHT22;55941;50.800;4.342;2022-10-16T14:23:36;20.90;99.90
34833;DHT22;55941;50.800;4.342;2022-10-16T14:26:22;21.00;99.90
34833;DHT22;55941;50.800;4.342;2022-10-16T14:28:48;20.90;99.90
34833;DHT22;55941;50.800;4.342;2022-10-16T14:31:24;21.10;99.90
34833;DHT22;55941;50.800;4.342;2022-10-16T14:33:50;21.10;99.90
34833;DHT22;55941;50.800;4.342;2022-10-16T14:36:15;21.00;99.90
34833;DHT22;55941;50.800;4.342;2022-10-16T14:38:53;21.10;99.90
34833;DHT22;55941;50.800;4.342;2022-10-16T14:41:21;21.20;99.90
34833;DHT22;55941;50.800;4.342;2022-10-16T14:43:49;21.30;99.90
34833;DHT22;55941;50.800;4.342;2022-10-16T14:46:16;21.30;99.90
34833;DHT22;55941;50.800;4.342;2022-10-16T14:48:43;21.50;99.90
34833;DHT22;55941;50.800;4.342;2022-10-16T14:51:12;21.50;99.90
34833;DHT22;55941;50.800;4.342;2022-10-16T14:53:38;21.30;99.90
34833;DHT22;55941;50.800;4.342;2022-10-16T14:58:58;21.30;99.90
34833;DHT22;55941;50.800;4.342;2022-10-16T15:01:24;21.20;99.90
34833;DHT22;55941;50.800;4.342;2022-10-16T15:03:50;21.10;99.90
34833;DHT22;55941;50.800;4.342;2022-10-16T15:06:17;20.90;99.90
34833;DHT22;55941;50.800;4.342;2022-10-16T15:08:44;20.80;99.90
34833;DHT22;55941;50.800;4.342;2022-10-16T15:11:14;20.80;99.90
34833;DHT22;55941;50.800;4.342;2022-10-16T15:13:40;20.70;99.90
34833;DHT22;55941;50.800;4.342;2022-10-16T15:16:08;20.70;99.90
34833;DHT22;55941;50.800;4.342;2022-10-16T15:18:35;20.60;99.90
34833;DHT22;55941;50.800;4.342;2022-10-16T15:21:01;20.60;99.90
34833;DHT22;55941;50.800;4.342;2022-10-16T15:23:26;20.50;99.90
34833;DHT22;55941;50.800;4.342;2022-10-16T15:25:53;20.50;99.90
34833;DHT22;55941;50.800;4.342;2022-10-16T15:28:19;20.50;99.90
34833;DHT22;55941;50.800;4.342;2022-10-16T15:30:44;20.30;99.90
34833;DHT22;55941;50.800;4.342;2022-10-16T15:33:14;20.30;99.90
34833;DHT22;55941;50.800;4.342;2022-10-16T15:35:40;20.20;99.90
34833;DHT22;55941;50.800;4.342;2022-10-16T15:38:06;20.10;99.90
34833;DHT22;55941;50.800;4.342;2022-10-16T15:40:33;19.90;99.90
34833;DHT22;55941;50.800;4.342;2022-10-16T15:42:59;19.80;99.90
34833;DHT22;55941;50.800;4.342;2022-10-16T15:45:26;19.70;99.90
34833;DHT22;55941;50.800;4.342;2022-10-16T15:47:51;19.60;99.90
34833;DHT22;55941;50.800;4.342;2022-10-16T15:50:19;19.50;99.90
34833;DHT22;55941;50.800;4.342;2022-10-16T15:52:45;19.40;99.90
34833;DHT22;55941;50.800;4.342;2022-10-16T15:55:11;19.30;99.90
34833;DHT22;55941;50.800;4.342;2022-10-16T15:57:37;19.20;99.90
34833;DHT22;55941;50.800;4.342;2022-10-16T16:00:07;19.20;99.90
34833;DHT22;55941;50.800;4.342;2022-10-16T16:02:33;19.10;99.90
34833;DHT22;55941;50.800;4.342;2022-10-16T16:04:59;19.00;99.90
34833;DHT22;55941;50.800;4.342;2022-10-16T16:07:25;18.90;99.90
34833;DHT22;55941;50.800;4.342;2022-10-16T16:09:54;18.90;99.90
34833;DHT22;55941;50.800;4.342;2022-10-16T16:12:19;18.90;99.90
34833;DHT22;55941;50.800;4.342;2022-10-16T16:14:45;18.90;99.90
34833;DHT22;55941;50.800;4.342;2022-10-16T16:17:13;18.80;99.90
34833;DHT22;55941;50.800;4.342;2022-10-16T16:19:39;18.70;99.90
34833;DHT22;55941;50.800;4.342;2022-10-16T16:22:04;18.70;99.90
34833;DHT22;55941;50.800;4.342;2022-10-16T16:24:30;18.60;99.90
34833;DHT22;55941;50.800;4.342;2022-10-16T16:26:55;18.60;99.90
34833;DHT22;55941;50.800;4.342;2022-10-16T16:29:21;18.60;99.90
34833;DHT22;55941;50.800;4.342;2022-10-16T16:31:47;18.50;99.90
34833;DHT22;55941;50.800;4.342;2022-10-16T16:34:13;18.40;99.90
34833;DHT22;55941;50.800;4.342;2022-10-16T16:36:38;18.50;99.90
34833;DHT22;55941;50.800;4.342;2022-10-16T16:39:05;18.30;99.90
34833;DHT22;55941;50.800;4.342;2022-10-16T16:41:31;18.20;99.90
34833;DHT22;55941;50.800;4.342;2022-10-16T16:44:02;18.20;99.90
34833;DHT22;55941;50.800;4.342;2022-10-16T16:46:27;18.20;99.90
34833;DHT22;55941;50.800;4.342;2022-10-16T16:48:53;18.20;99.90
34833;DHT22;55941;50.800;4.342;2022-10-16T16:51:20;18.10;99.90
34833;DHT22;55941;50.800;4.342;2022-10-16T16:53:47;18.00;99.90
34833;DHT22;55941;50.800;4.342;2022-10-16T16:56:13;18.00;99.90
34833;DHT22;55941;50.800;4.342;2022-10-16T16:58:39;18.30;99.90
34833;DHT22;55941;50.800;4.342;2022-10-16T17:01:05;18.40;99.90
34833;DHT22;55941;50.800;4.342;2022-10-16T17:03:32;18.40;99.90